sensor_id;sensor_type;location;lat;lon;timestamp;P1;durP1;ratioP1;P2;durP2;ratioP2
21647;SDS011;10985;54.182;7.890;2023-06-24T00:00:35;11.02;;;7.45;;
21647;SDS011;10985;54.182;7.890;2023-06-24T00:03:02;12.05;;;7.53;;
21647;SDS011;10985;54.182;7.890;2023-06-24T00:05:27;10.25;;;7.07;;
21647;SDS011;10985;54.182;7.890;2023-06-24T00:07:53;7.75;;;7.15;;
21647;SDS011;10985;54.182;7.890;2023-06-24T00:10:22;7.60;;;6.90;;
21647;SDS011;10985;54.182;7.890;2023-06-24T00:12:47;7.60;;;6.90;;
21647;SDS011;10985;54.182;7.890;2023-06-24T00:15:13;8.80;;;6.72;;
21647;SDS011;10985;54.182;7.890;2023-06-24T00:17:39;9.77;;;7.30;;
21647;SDS011;10985;54.182;7.890;2023-06-24T00:20:05;13.35;;;6.97;;
21647;SDS011;10985;54.182;7.890;2023-06-24T00:22:33;10.40;;;6.72;;
21647;SDS011;10985;54.182;7.890;2023-06-24T00:24:59;8.70;;;7.10;;
21647;SDS011;10985;54.182;7.890;2023-06-24T00:27:25;10.23;;;7.80;;
21647;SDS011;10985;54.182;7.890;2023-06-24T00:29:51;10.73;;;6.53;;
21647;SDS011;10985;54.182;7.890;2023-06-24T00:32:17;10.93;;;8.07;;
21647;SDS011;10985;54.182;7.890;2023-06-24T00:34:42;15.88;;;8.52;;
21647;SDS011;10985;54.182;7.890;2023-06-24T00:37:09;9.18;;;7.30;;
21647;SDS011;10985;54.182;7.890;2023-06-24T00:39:34;11.57;;;7.80;;
21647;SDS011;10985;54.182;7.890;2023-06-24T00:42:00;10.27;;;6.97;;
21647;SDS011;10985;54.182;7.890;2023-06-24T00:44:25;7.45;;;6.70;;
21647;SDS011;10985;54.182;7.890;2023-06-24T00:46:51;10.55;;;7.13;;
21647;SDS011;10985;54.182;7.890;2023-06-24T00:49:17;7.85;;;7.13;;
21647;SDS011;10985;54.182;7.890;2023-06-24T00:51:42;10.15;;;7.07;;
21647;SDS011;10985;54.182;7.890;2023-06-24T00:54:12;8.68;;;7.30;;
21647;SDS011;10985;54.182;7.890;2023-06-24T00:56:38;7.55;;;6.85;;
21647;SDS011;10985;54.182;7.890;2023-06-24T00:59:03;8.82;;;6.97;;
21647;SDS011;10985;54.182;7.890;2023-06-24T01:01:32;10.55;;;7.93;;
21647;SDS011;10985;54.182;7.890;2023-06-24T01:04:00;11.00;;;8.05;;
21647;SDS011;10985;54.182;7.890;2023-06-24T01:06:27;11.73;;;8.40;;
21647;SDS011;10985;54.182;7.890;2023-06-24T01:08:54;9.43;;;7.63;;
21647;SDS011;10985;54.182;7.890;2023-06-24T01:11:21;9.45;;;8.50;;
21647;SDS011;10985;54.182;7.890;2023-06-24T01:13:48;8.70;;;7.90;;
21647;SDS011;10985;54.182;7.890;2023-06-24T01:16:16;8.90;;;8.02;;
21647;SDS011;10985;54.182;7.890;2023-06-24T01:18:59;9.35;;;7.53;;
21647;SDS011;10985;54.182;7.890;2023-06-24T01:24:24;8.98;;;8.20;;
21647;SDS011;10985;54.182;7.890;2023-06-24T01:33:26;10.82;;;8.88;;
21647;SDS011;10985;54.182;7.890;2023-06-24T01:36:01;13.18;;;10.18;;
21647;SDS011;10985;54.182;7.890;2023-06-24T01:38:35;10.27;;;9.38;;
21647;SDS011;10985;54.182;7.890;2023-06-24T01:41:07;13.50;;;10.25;;
21647;SDS011;10985;54.182;7.890;2023-06-24T01:43:34;12.02;;;9.82;;
21647;SDS011;10985;54.182;7.890;2023-06-24T01:46:02;10.30;;;9.20;;
21647;SDS011;10985;54.182;7.890;2023-06-24T01:48:31;12.38;;;10.05;;
21647;SDS011;10985;54.182;7.890;2023-06-24T01:51:13;10.30;;;9.15;;
21647;SDS011;10985;54.182;7.890;2023-06-24T01:53:44;9.77;;;8.82;;
21647;SDS011;10985;54.182;7.890;2023-06-24T01:56:14;13.70;;;8.80;;
21647;SDS011;10985;54.182;7.890;2023-06-24T01:58:41;11.15;;;10.15;;
21647;SDS011;10985;54.182;7.890;2023-06-24T02:01:08;10.10;;;8.90;;
21647;SDS011;10985;54.182;7.890;2023-06-24T02:03:34;11.68;;;9.32;;
21647;SDS011;10985;54.182;7.890;2023-06-24T02:06:01;12.20;;;9.55;;
21647;SDS011;10985;54.182;7.890;2023-06-24T02:08:32;12.32;;;9.38;;
21647;SDS011;10985;54.182;7.890;2023-06-24T02:11:00;13.40;;;9.40;;
21647;SDS011;10985;54.182;7.890;2023-06-24T02:13:27;14.55;;;9.68;;
21647;SDS011;10985;54.182;7.890;2023-06-24T02:15:57;12.35;;;9.48;;
21647;SDS011;10985;54.182;7.890;2023-06-24T02:18:25;16.63;;;10.98;;
21647;SDS011;10985;54.182;7.890;2023-06-24T02:20:52;12.63;;;10.02;;
21647;SDS011;10985;54.182;7.890;2023-06-24T02:23:19;11.15;;;9.48;;
21647;SDS011;10985;54.182;7.890;2023-06-24T02:25:46;11.75;;;9.60;;
21647;SDS011;10985;54.182;7.890;2023-06-24T02:28:12;14.35;;;10.00;;
21647;SDS011;10985;54.182;7.890;2023-06-24T02:30:41;16.98;;;10.32;;
21647;SDS011;10985;54.182;7.890;2023-06-24T02:33:07;12.13;;;9.77;;
21647;SDS011;10985;54.182;7.890;2023-06-24T02:35:34;12.52;;;9.57;;
21647;SDS011;10985;54.182;7.890;2023-06-24T02:37:59;11.07;;;9.95;;
21647;SDS011;10985;54.182;7.890;2023-06-24T02:40:25;13.50;;;10.07;;
21647;SDS011;10985;54.182;7.890;2023-06-24T02:42:52;13.80;;;9.93;;
21647;SDS011;10985;54.182;7.890;2023-06-24T02:45:17;14.00;;;10.23;;
21647;SDS011;10985;54.182;7.890;2023-06-24T02:47:43;15.25;;;10.57;;
21647;SDS011;10985;54.182;7.890;2023-06-24T02:50:11;15.77;;;9.98;;
21647;SDS011;10985;54.182;7.890;2023-06-24T02:52:37;17.80;;;10.45;;
21647;SDS011;10985;54.182;7.890;2023-06-24T02:55:04;15.15;;;10.38;;
21647;SDS011;10985;54.182;7.890;2023-06-24T02:57:30;11.45;;;10.10;;
21647;SDS011;10985;54.182;7.890;2023-06-24T02:59:57;15.23;;;11.40;;
21647;SDS011;10985;54.182;7.890;2023-06-24T03:02:22;13.13;;;11.27;;
21647;SDS011;10985;54.182;7.890;2023-06-24T03:04:49;12.50;;;11.10;;
21647;SDS011;10985;54.182;7.890;2023-06-24T03:07:16;13.07;;;10.85;;
21647;SDS011;10985;54.182;7.890;2023-06-24T03:09:45;14.50;;;10.57;;
21647;SDS011;10985;54.182;7.890;2023-06-24T03:12:11;15.10;;;10.65;;
21647;SDS011;10985;54.182;7.890;2023-06-24T03:14:36;13.63;;;11.93;;
21647;SDS011;10985;54.182;7.890;2023-06-24T03:17:02;12.25;;;10.50;;
21647;SDS011;10985;54.182;7.890;2023-06-24T03:19:28;15.20;;;10.90;;
21647;SDS011;10985;54.182;7.890;2023-06-24T03:21:53;16.92;;;11.93;;
21647;SDS011;10985;54.182;7.890;2023-06-24T03:24:19;14.23;;;11.88;;
21647;SDS011;10985;54.182;7.890;2023-06-24T03:26:44;14.63;;;12.57;;
21647;SDS011;10985;54.182;7.890;2023-06-24T03:29:10;15.18;;;11.10;;
21647;SDS011;10985;54.182;7.890;2023-06-24T03:31:36;14.82;;;12.00;;
21647;SDS011;10985;54.182;7.890;2023-06-24T03:34:02;16.23;;;11.38;;
21647;SDS011;10985;54.182;7.890;2023-06-24T03:36:27;14.30;;;11.23;;
21647;SDS011;10985;54.182;7.890;2023-06-24T03:38:53;16.25;;;11.88;;
21647;SDS011;10985;54.182;7.890;2023-06-24T03:41:19;11.13;;;10.00;;
21647;SDS011;10985;54.182;7.890;2023-06-24T03:43:44;15.32;;;10.65;;
21647;SDS011;10985;54.182;7.890;2023-06-24T03:46:10;13.60;;;10.23;;
21647;SDS011;10985;54.182;7.890;2023-06-24T03:48:36;14.60;;;10.70;;
21647;SDS011;10985;54.182;7.890;2023-06-24T03:51:02;14.60;;;10.05;;
21647;SDS011;10985;54.182;7.890;2023-06-24T03:53:27;16.13;;;10.20;;
21647;SDS011;10985;54.182;7.890;2023-06-24T03:55:53;13.82;;;11.40;;
21647;SDS011;10985;54.182;7.890;2023-06-24T03:58:18;13.70;;;11.15;;
21647;SDS011;10985;54.182;7.890;2023-06-24T04:00:46;12.73;;;10.85;;
21647;SDS011;10985;54.182;7.890;2023-06-24T04:03:14;11.98;;;10.77;;
21647;SDS011;10985;54.182;7.890;2023-06-24T04:05:43;13.80;;;12.27;;
21647;SDS011;10985;54.182;7.890;2023-06-24T04:08:09;13.45;;;11.85;;
21647;SDS011;10985;54.182;7.890;2023-06-24T04:10:34;15.18;;;11.48;;
21647;SDS011;10985;54.182;7.890;2023-06-24T04:13:00;16.92;;;11.57;;
21647;SDS011;10985;54.182;7.890;2023-06-24T04:15:25;17.17;;;11.65;;
21647;SDS011;10985;54.182;7.890;2023-06-24T04:17:51;15.38;;;11.70;;
21647;SDS011;10985;54.182;7.890;2023-06-24T04:20:16;13.77;;;11.60;;
21647;SDS011;10985;54.182;7.890;2023-06-24T04:22:42;12.48;;;10.40;;
21647;SDS011;10985;54.182;7.890;2023-06-24T04:25:08;12.98;;;11.57;;
21647;SDS011;10985;54.182;7.890;2023-06-24T04:27:33;14.43;;;11.20;;
21647;SDS011;10985;54.182;7.890;2023-06-24T04:30:00;13.73;;;10.18;;
21647;SDS011;10985;54.182;7.890;2023-06-24T04:32:26;16.27;;;12.05;;
21647;SDS011;10985;54.182;7.890;2023-06-24T04:34:51;15.77;;;10.95;;
21647;SDS011;10985;54.182;7.890;2023-06-24T04:37:18;15.73;;;11.50;;
21647;SDS011;10985;54.182;7.890;2023-06-24T04:39:43;12.95;;;11.02;;
21647;SDS011;10985;54.182;7.890;2023-06-24T04:42:09;11.90;;;10.18;;
21647;SDS011;10985;54.182;7.890;2023-06-24T04:44:35;12.57;;;11.02;;
21647;SDS011;10985;54.182;7.890;2023-06-24T04:47:01;14.68;;;10.70;;
21647;SDS011;10985;54.182;7.890;2023-06-24T04:49:28;13.27;;;10.65;;
21647;SDS011;10985;54.182;7.890;2023-06-24T04:51:53;10.98;;;9.52;;
21647;SDS011;10985;54.182;7.890;2023-06-24T04:54:19;13.18;;;9.25;;
21647;SDS011;10985;54.182;7.890;2023-06-24T04:56:44;13.10;;;9.60;;
21647;SDS011;10985;54.182;7.890;2023-06-24T04:59:10;10.48;;;9.02;;
21647;SDS011;10985;54.182;7.890;2023-06-24T05:01:36;10.85;;;9.43;;
21647;SDS011;10985;54.182;7.890;2023-06-24T05:04:01;12.90;;;9.95;;
21647;SDS011;10985;54.182;7.890;2023-06-24T05:06:27;12.35;;;9.27;;
21647;SDS011;10985;54.182;7.890;2023-06-24T05:08:53;11.68;;;8.23;;
21647;SDS011;10985;54.182;7.890;2023-06-24T05:11:18;12.38;;;8.13;;
21647;SDS011;10985;54.182;7.890;2023-06-24T05:13:43;10.65;;;8.88;;
21647;SDS011;10985;54.182;7.890;2023-06-24T05:16:09;9.00;;;7.63;;
21647;SDS011;10985;54.182;7.890;2023-06-24T05:18:35;10.48;;;9.00;;
21647;SDS011;10985;54.182;7.890;2023-06-24T05:21:01;9.73;;;8.85;;
21647;SDS011;10985;54.182;7.890;2023-06-24T05:23:26;9.02;;;8.05;;
21647;SDS011;10985;54.182;7.890;2023-06-24T05:25:52;11.82;;;8.82;;
21647;SDS011;10985;54.182;7.890;2023-06-24T05:28:17;10.15;;;9.15;;
21647;SDS011;10985;54.182;7.890;2023-06-24T05:30:44;11.43;;;8.82;;
21647;SDS011;10985;54.182;7.890;2023-06-24T05:33:10;8.93;;;8.02;;
21647;SDS011;10985;54.182;7.890;2023-06-24T05:35:36;11.23;;;9.63;;
21647;SDS011;10985;54.182;7.890;2023-06-24T05:38:04;10.07;;;8.55;;
21647;SDS011;10985;54.182;7.890;2023-06-24T05:40:30;10.60;;;9.45;;
21647;SDS011;10985;54.182;7.890;2023-06-24T05:42:56;10.32;;;9.45;;
21647;SDS011;10985;54.182;7.890;2023-06-24T05:45:21;11.02;;;9.93;;
21647;SDS011;10985;54.182;7.890;2023-06-24T05:47:47;12.32;;;9.85;;
21647;SDS011;10985;54.182;7.890;2023-06-24T05:50:12;10.82;;;9.20;;
21647;SDS011;10985;54.182;7.890;2023-06-24T05:52:38;15.95;;;9.93;;
21647;SDS011;10985;54.182;7.890;2023-06-24T05:55:03;13.20;;;9.95;;
21647;SDS011;10985;54.182;7.890;2023-06-24T05:57:29;10.52;;;9.15;;
21647;SDS011;10985;54.182;7.890;2023-06-24T05:59:54;10.35;;;8.15;;
21647;SDS011;10985;54.182;7.890;2023-06-24T06:02:20;10.68;;;9.68;;
21647;SDS011;10985;54.182;7.890;2023-06-24T06:04:46;10.60;;;8.60;;
21647;SDS011;10985;54.182;7.890;2023-06-24T06:07:12;9.27;;;8.40;;
21647;SDS011;10985;54.182;7.890;2023-06-24T06:09:37;10.70;;;9.60;;
21647;SDS011;10985;54.182;7.890;2023-06-24T06:12:03;11.60;;;8.88;;
21647;SDS011;10985;54.182;7.890;2023-06-24T06:14:29;10.52;;;9.40;;
21647;SDS011;10985;54.182;7.890;2023-06-24T06:16:55;10.45;;;9.45;;
21647;SDS011;10985;54.182;7.890;2023-06-24T06:19:20;13.40;;;8.23;;
21647;SDS011;10985;54.182;7.890;2023-06-24T06:21:46;11.13;;;8.75;;
21647;SDS011;10985;54.182;7.890;2023-06-24T06:24:11;12.77;;;8.55;;
21647;SDS011;10985;54.182;7.890;2023-06-24T06:26:41;10.70;;;9.40;;
21647;SDS011;10985;54.182;7.890;2023-06-24T06:29:08;11.45;;;9.15;;
21647;SDS011;10985;54.182;7.890;2023-06-24T06:31:34;13.80;;;10.27;;
21647;SDS011;10985;54.182;7.890;2023-06-24T06:33:59;15.05;;;10.27;;
21647;SDS011;10985;54.182;7.890;2023-06-24T06:36:25;10.98;;;9.90;;
21647;SDS011;10985;54.182;7.890;2023-06-24T06:38:50;15.50;;;8.93;;
21647;SDS011;10985;54.182;7.890;2023-06-24T06:41:16;13.45;;;8.60;;
21647;SDS011;10985;54.182;7.890;2023-06-24T06:43:42;15.65;;;9.25;;
21647;SDS011;10985;54.182;7.890;2023-06-24T06:46:08;11.45;;;9.27;;
21647;SDS011;10985;54.182;7.890;2023-06-24T06:48:33;9.65;;;8.70;;
21647;SDS011;10985;54.182;7.890;2023-06-24T06:50:59;13.13;;;9.70;;
21647;SDS011;10985;54.182;7.890;2023-06-24T06:53:24;11.38;;;9.85;;
21647;SDS011;10985;54.182;7.890;2023-06-24T06:55:50;11.10;;;9.90;;
21647;SDS011;10985;54.182;7.890;2023-06-24T06:58:15;12.15;;;9.48;;
21647;SDS011;10985;54.182;7.890;2023-06-24T07:00:41;10.88;;;9.15;;
21647;SDS011;10985;54.182;7.890;2023-06-24T07:03:06;10.07;;;9.05;;
21647;SDS011;10985;54.182;7.890;2023-06-24T07:05:32;10.43;;;8.60;;
21647;SDS011;10985;54.182;7.890;2023-06-24T07:07:57;9.20;;;8.32;;
21647;SDS011;10985;54.182;7.890;2023-06-24T07:10:23;11.73;;;8.85;;
21647;SDS011;10985;54.182;7.890;2023-06-24T07:12:48;8.65;;;7.85;;
21647;SDS011;10985;54.182;7.890;2023-06-24T07:15:14;8.55;;;7.57;;
21647;SDS011;10985;54.182;7.890;2023-06-24T07:17:40;11.77;;;8.10;;
21647;SDS011;10985;54.182;7.890;2023-06-24T07:20:06;8.32;;;7.43;;
21647;SDS011;10985;54.182;7.890;2023-06-24T07:22:32;8.52;;;7.72;;
21647;SDS011;10985;54.182;7.890;2023-06-24T07:24:58;9.65;;;7.28;;
21647;SDS011;10985;54.182;7.890;2023-06-24T07:27:23;12.20;;;7.35;;
21647;SDS011;10985;54.182;7.890;2023-06-24T07:29:49;8.82;;;7.88;;
21647;SDS011;10985;54.182;7.890;2023-06-24T07:32:14;9.90;;;7.88;;
21647;SDS011;10985;54.182;7.890;2023-06-24T07:34:40;8.65;;;7.80;;
21647;SDS011;10985;54.182;7.890;2023-06-24T07:37:05;11.85;;;8.15;;
21647;SDS011;10985;54.182;7.890;2023-06-24T07:39:31;11.40;;;8.07;;
21647;SDS011;10985;54.182;7.890;2023-06-24T07:41:56;9.73;;;7.65;;
21647;SDS011;10985;54.182;7.890;2023-06-24T07:44:22;9.65;;;7.47;;
21647;SDS011;10985;54.182;7.890;2023-06-24T07:46:47;8.38;;;7.47;;
21647;SDS011;10985;54.182;7.890;2023-06-24T07:49:13;9.65;;;7.55;;
21647;SDS011;10985;54.182;7.890;2023-06-24T07:51:39;8.25;;;7.45;;
21647;SDS011;10985;54.182;7.890;2023-06-24T07:54:04;10.27;;;7.68;;
21647;SDS011;10985;54.182;7.890;2023-06-24T07:56:30;8.40;;;7.55;;
21647;SDS011;10985;54.182;7.890;2023-06-24T07:58:55;12.63;;;7.53;;
21647;SDS011;10985;54.182;7.890;2023-06-24T08:01:21;12.35;;;6.85;;
21647;SDS011;10985;54.182;7.890;2023-06-24T08:03:46;11.02;;;7.30;;
21647;SDS011;10985;54.182;7.890;2023-06-24T08:06:12;8.52;;;7.00;;
21647;SDS011;10985;54.182;7.890;2023-06-24T08:08:37;9.05;;;7.07;;
21647;SDS011;10985;54.182;7.890;2023-06-24T08:11:03;11.80;;;7.28;;
21647;SDS011;10985;54.182;7.890;2023-06-24T08:13:28;15.73;;;8.25;;
21647;SDS011;10985;54.182;7.890;2023-06-24T08:15:54;9.50;;;7.85;;
21647;SDS011;10985;54.182;7.890;2023-06-24T08:18:19;8.02;;;7.32;;
21647;SDS011;10985;54.182;7.890;2023-06-24T08:20:45;11.07;;;7.47;;
21647;SDS011;10985;54.182;7.890;2023-06-24T08:23:10;9.68;;;7.35;;
21647;SDS011;10985;54.182;7.890;2023-06-24T08:25:36;8.80;;;7.78;;
21647;SDS011;10985;54.182;7.890;2023-06-24T08:28:01;10.18;;;7.88;;
21647;SDS011;10985;54.182;7.890;2023-06-24T08:30:27;10.65;;;7.90;;
21647;SDS011;10985;54.182;7.890;2023-06-24T08:32:52;13.32;;;8.23;;
21647;SDS011;10985;54.182;7.890;2023-06-24T08:35:18;11.85;;;8.70;;
21647;SDS011;10985;54.182;7.890;2023-06-24T08:37:43;13.00;;;8.77;;
21647;SDS011;10985;54.182;7.890;2023-06-24T08:40:09;11.25;;;8.25;;
21647;SDS011;10985;54.182;7.890;2023-06-24T08:42:35;10.57;;;8.05;;
21647;SDS011;10985;54.182;7.890;2023-06-24T08:45:00;9.05;;;8.13;;
21647;SDS011;10985;54.182;7.890;2023-06-24T08:47:26;11.18;;;8.15;;
21647;SDS011;10985;54.182;7.890;2023-06-24T08:49:55;10.65;;;9.55;;
21647;SDS011;10985;54.182;7.890;2023-06-24T08:52:49;9.65;;;8.43;;
21647;SDS011;10985;54.182;7.890;2023-06-24T08:55:16;9.75;;;8.73;;
21647;SDS011;10985;54.182;7.890;2023-06-24T08:57:45;16.52;;;9.48;;
21647;SDS011;10985;54.182;7.890;2023-06-24T09:00:11;11.40;;;8.88;;
21647;SDS011;10985;54.182;7.890;2023-06-24T09:02:37;11.70;;;9.07;;
21647;SDS011;10985;54.182;7.890;2023-06-24T09:05:06;12.35;;;10.10;;
21647;SDS011;10985;54.182;7.890;2023-06-24T09:07:33;13.48;;;8.77;;
21647;SDS011;10985;54.182;7.890;2023-06-24T09:09:59;13.68;;;10.57;;
21647;SDS011;10985;54.182;7.890;2023-06-24T09:12:28;12.75;;;10.40;;
21647;SDS011;10985;54.182;7.890;2023-06-24T09:14:56;13.85;;;10.13;;
21647;SDS011;10985;54.182;7.890;2023-06-24T09:17:22;12.15;;;10.55;;
21647;SDS011;10985;54.182;7.890;2023-06-24T09:19:51;16.63;;;10.30;;
21647;SDS011;10985;54.182;7.890;2023-06-24T09:22:16;14.23;;;9.82;;
21647;SDS011;10985;54.182;7.890;2023-06-24T09:24:43;10.90;;;9.50;;
21647;SDS011;10985;54.182;7.890;2023-06-24T09:27:11;13.20;;;10.23;;
21647;SDS011;10985;54.182;7.890;2023-06-24T09:29:39;11.20;;;9.13;;
21647;SDS011;10985;54.182;7.890;2023-06-24T09:32:05;10.35;;;8.50;;
21647;SDS011;10985;54.182;7.890;2023-06-24T09:34:31;9.82;;;8.10;;
21647;SDS011;10985;54.182;7.890;2023-06-24T09:36:57;10.10;;;8.68;;
21647;SDS011;10985;54.182;7.890;2023-06-24T09:39:24;9.88;;;8.27;;
21647;SDS011;10985;54.182;7.890;2023-06-24T09:41:55;12.57;;;9.48;;
21647;SDS011;10985;54.182;7.890;2023-06-24T09:44:25;10.02;;;9.02;;
21647;SDS011;10985;54.182;7.890;2023-06-24T09:46:51;13.13;;;10.18;;
21647;SDS011;10985;54.182;7.890;2023-06-24T09:49:17;9.70;;;8.75;;
21647;SDS011;10985;54.182;7.890;2023-06-24T09:51:44;10.43;;;9.40;;
21647;SDS011;10985;54.182;7.890;2023-06-24T09:54:11;11.32;;;9.60;;
21647;SDS011;10985;54.182;7.890;2023-06-24T09:56:39;10.52;;;9.40;;
21647;SDS011;10985;54.182;7.890;2023-06-24T09:59:10;11.60;;;8.27;;
21647;SDS011;10985;54.182;7.890;2023-06-24T10:01:42;11.80;;;8.95;;
21647;SDS011;10985;54.182;7.890;2023-06-24T10:04:09;9.98;;;8.95;;
21647;SDS011;10985;54.182;7.890;2023-06-24T10:06:39;10.55;;;8.77;;
21647;SDS011;10985;54.182;7.890;2023-06-24T10:09:05;10.05;;;8.52;;
21647;SDS011;10985;54.182;7.890;2023-06-24T10:11:30;10.02;;;8.90;;
21647;SDS011;10985;54.182;7.890;2023-06-24T10:13:56;8.73;;;7.82;;
21647;SDS011;10985;54.182;7.890;2023-06-24T10:16:21;9.00;;;8.05;;
21647;SDS011;10985;54.182;7.890;2023-06-24T10:18:47;9.02;;;7.80;;
21647;SDS011;10985;54.182;7.890;2023-06-24T10:21:14;11.68;;;8.63;;
21647;SDS011;10985;54.182;7.890;2023-06-24T10:23:41;10.43;;;7.78;;
21647;SDS011;10985;54.182;7.890;2023-06-24T10:36:59;9.63;;;8.05;;
21647;SDS011;10985;54.182;7.890;2023-06-24T10:42:38;7.85;;;7.15;;
21647;SDS011;10985;54.182;7.890;2023-06-24T10:47:35;9.02;;;7.97;;
21647;SDS011;10985;54.182;7.890;2023-06-24T10:50:07;8.85;;;8.05;;
21647;SDS011;10985;54.182;7.890;2023-06-24T10:52:44;10.95;;;9.88;;
21647;SDS011;10985;54.182;7.890;2023-06-24T10:55:16;10.48;;;9.60;;
21647;SDS011;10985;54.182;7.890;2023-06-24T10:57:42;9.85;;;8.95;;
21647;SDS011;10985;54.182;7.890;2023-06-24T11:00:08;9.85;;;8.82;;
21647;SDS011;10985;54.182;7.890;2023-06-24T11:02:34;10.60;;;8.80;;
21647;SDS011;10985;54.182;7.890;2023-06-24T11:05:02;10.20;;;9.20;;
21647;SDS011;10985;54.182;7.890;2023-06-24T11:07:29;11.07;;;9.40;;
21647;SDS011;10985;54.182;7.890;2023-06-24T11:10:06;9.27;;;7.93;;
21647;SDS011;10985;54.182;7.890;2023-06-24T11:12:34;10.02;;;9.18;;
21647;SDS011;10985;54.182;7.890;2023-06-24T11:15:09;11.38;;;10.27;;
21647;SDS011;10985;54.182;7.890;2023-06-24T11:17:37;11.43;;;9.30;;
21647;SDS011;10985;54.182;7.890;2023-06-24T11:20:07;10.13;;;9.15;;
21647;SDS011;10985;54.182;7.890;2023-06-24T11:22:34;11.38;;;10.30;;
21647;SDS011;10985;54.182;7.890;2023-06-24T11:24:59;10.93;;;9.55;;
21647;SDS011;10985;54.182;7.890;2023-06-24T11:27:26;11.68;;;10.48;;
21647;SDS011;10985;54.182;7.890;2023-06-24T11:29:52;14.50;;;11.88;;
21647;SDS011;10985;54.182;7.890;2023-06-24T11:32:19;10.85;;;9.95;;
21647;SDS011;10985;54.182;7.890;2023-06-24T11:34:45;14.02;;;11.48;;
21647;SDS011;10985;54.182;7.890;2023-06-24T11:37:12;13.52;;;12.13;;
21647;SDS011;10985;54.182;7.890;2023-06-24T11:39:39;14.38;;;12.88;;
21647;SDS011;10985;54.182;7.890;2023-06-24T11:42:08;12.68;;;11.32;;
21647;SDS011;10985;54.182;7.890;2023-06-24T11:44:35;13.45;;;12.05;;
21647;SDS011;10985;54.182;7.890;2023-06-24T11:47:06;14.27;;;12.82;;
21647;SDS011;10985;54.182;7.890;2023-06-24T11:49:42;13.07;;;11.88;;
21647;SDS011;10985;54.182;7.890;2023-06-24T11:52:13;14.88;;;12.40;;
21647;SDS011;10985;54.182;7.890;2023-06-24T11:54:42;16.77;;;13.38;;
21647;SDS011;10985;54.182;7.890;2023-06-24T11:57:10;15.43;;;14.02;;
21647;SDS011;10985;54.182;7.890;2023-06-24T11:59:37;15.77;;;14.27;;
21647;SDS011;10985;54.182;7.890;2023-06-24T12:02:03;18.48;;;14.65;;
21647;SDS011;10985;54.182;7.890;2023-06-24T12:04:31;17.30;;;15.38;;
21647;SDS011;10985;54.182;7.890;2023-06-24T12:07:02;19.85;;;16.10;;
21647;SDS011;10985;54.182;7.890;2023-06-24T12:09:28;17.10;;;15.50;;
21647;SDS011;10985;54.182;7.890;2023-06-24T12:11:54;18.77;;;16.92;;
21647;SDS011;10985;54.182;7.890;2023-06-24T12:14:20;17.88;;;16.00;;
21647;SDS011;10985;54.182;7.890;2023-06-24T12:16:45;18.77;;;16.77;;
21647;SDS011;10985;54.182;7.890;2023-06-24T12:19:11;19.40;;;17.30;;
21647;SDS011;10985;54.182;7.890;2023-06-24T12:21:36;20.38;;;18.17;;
21647;SDS011;10985;54.182;7.890;2023-06-24T12:24:02;20.42;;;18.23;;
21647;SDS011;10985;54.182;7.890;2023-06-24T12:26:29;21.38;;;17.83;;
21647;SDS011;10985;54.182;7.890;2023-06-24T12:28:55;24.80;;;19.75;;
21647;SDS011;10985;54.182;7.890;2023-06-24T12:31:21;20.70;;;18.60;;
21647;SDS011;10985;54.182;7.890;2023-06-24T12:33:47;21.08;;;18.80;;
21647;SDS011;10985;54.182;7.890;2023-06-24T12:36:12;20.20;;;18.10;;
21647;SDS011;10985;54.182;7.890;2023-06-24T12:38:38;20.88;;;18.65;;
21647;SDS011;10985;54.182;7.890;2023-06-24T12:41:03;21.05;;;18.20;;
21647;SDS011;10985;54.182;7.890;2023-06-24T12:43:29;21.70;;;19.35;;
21647;SDS011;10985;54.182;7.890;2023-06-24T12:45:55;21.33;;;18.60;;
21647;SDS011;10985;54.182;7.890;2023-06-24T12:48:20;21.63;;;19.23;;
21647;SDS011;10985;54.182;7.890;2023-06-24T12:50:46;21.42;;;19.15;;
21647;SDS011;10985;54.182;7.890;2023-06-24T12:53:13;21.92;;;16.88;;
21647;SDS011;10985;54.182;7.890;2023-06-24T12:55:40;19.33;;;17.05;;
21647;SDS011;10985;54.182;7.890;2023-06-24T12:58:06;24.30;;;20.00;;
21647;SDS011;10985;54.182;7.890;2023-06-24T13:00:32;22.65;;;20.25;;
21647;SDS011;10985;54.182;7.890;2023-06-24T13:02:57;22.40;;;19.65;;
21647;SDS011;10985;54.182;7.890;2023-06-24T13:05:23;22.17;;;19.40;;
21647;SDS011;10985;54.182;7.890;2023-06-24T13:07:49;23.02;;;20.55;;
21647;SDS011;10985;54.182;7.890;2023-06-24T13:10:15;22.60;;;20.27;;
21647;SDS011;10985;54.182;7.890;2023-06-24T13:12:41;21.98;;;19.60;;
21647;SDS011;10985;54.182;7.890;2023-06-24T13:15:06;22.45;;;20.13;;
21647;SDS011;10985;54.182;7.890;2023-06-24T13:17:34;20.98;;;18.75;;
21647;SDS011;10985;54.182;7.890;2023-06-24T13:19:59;22.60;;;19.40;;
21647;SDS011;10985;54.182;7.890;2023-06-24T13:22:27;19.02;;;17.15;;
21647;SDS011;10985;54.182;7.890;2023-06-24T13:24:52;24.33;;;18.08;;
21647;SDS011;10985;54.182;7.890;2023-06-24T13:27:18;18.00;;;15.93;;
21647;SDS011;10985;54.182;7.890;2023-06-24T13:29:44;18.25;;;15.85;;
21647;SDS011;10985;54.182;7.890;2023-06-24T13:32:10;17.95;;;15.10;;
21647;SDS011;10985;54.182;7.890;2023-06-24T13:34:35;19.65;;;16.17;;
21647;SDS011;10985;54.182;7.890;2023-06-24T13:37:01;18.42;;;13.88;;
21647;SDS011;10985;54.182;7.890;2023-06-24T13:39:27;15.43;;;13.75;;
21647;SDS011;10985;54.182;7.890;2023-06-24T13:41:53;14.20;;;12.70;;
21647;SDS011;10985;54.182;7.890;2023-06-24T13:44:18;14.07;;;12.68;;
21647;SDS011;10985;54.182;7.890;2023-06-24T13:46:44;13.45;;;10.45;;
21647;SDS011;10985;54.182;7.890;2023-06-24T13:49:10;14.27;;;9.75;;
21647;SDS011;10985;54.182;7.890;2023-06-24T13:51:35;10.80;;;9.55;;
21647;SDS011;10985;54.182;7.890;2023-06-24T13:54:01;12.10;;;9.30;;
21647;SDS011;10985;54.182;7.890;2023-06-24T13:56:27;9.75;;;8.63;;
21647;SDS011;10985;54.182;7.890;2023-06-24T13:58:53;10.13;;;9.13;;
21647;SDS011;10985;54.182;7.890;2023-06-24T14:01:20;10.70;;;8.05;;
21647;SDS011;10985;54.182;7.890;2023-06-24T14:03:46;8.60;;;7.80;;
21647;SDS011;10985;54.182;7.890;2023-06-24T14:06:16;7.90;;;6.85;;
21647;SDS011;10985;54.182;7.890;2023-06-24T14:08:43;8.30;;;7.18;;
21647;SDS011;10985;54.182;7.890;2023-06-24T14:11:08;9.65;;;6.80;;
21647;SDS011;10985;54.182;7.890;2023-06-24T14:13:34;7.28;;;6.60;;
21647;SDS011;10985;54.182;7.890;2023-06-24T14:16:01;9.05;;;8.20;;
21647;SDS011;10985;54.182;7.890;2023-06-24T14:18:27;8.77;;;6.82;;
21647;SDS011;10985;54.182;7.890;2023-06-24T14:20:52;8.45;;;7.20;;
21647;SDS011;10985;54.182;7.890;2023-06-24T14:23:18;9.52;;;8.52;;
21647;SDS011;10985;54.182;7.890;2023-06-24T14:25:43;8.52;;;7.20;;
21647;SDS011;10985;54.182;7.890;2023-06-24T14:28:09;9.43;;;8.38;;
21647;SDS011;10985;54.182;7.890;2023-06-24T14:30:34;11.00;;;9.45;;
21647;SDS011;10985;54.182;7.890;2023-06-24T14:33:00;9.20;;;8.18;;
21647;SDS011;10985;54.182;7.890;2023-06-24T14:35:26;9.60;;;8.18;;
21647;SDS011;10985;54.182;7.890;2023-06-24T14:37:52;11.82;;;9.52;;
21647;SDS011;10985;54.182;7.890;2023-06-24T14:40:17;11.65;;;8.65;;
21647;SDS011;10985;54.182;7.890;2023-06-24T14:42:43;10.32;;;8.13;;
21647;SDS011;10985;54.182;7.890;2023-06-24T14:45:09;9.25;;;8.30;;
21647;SDS011;10985;54.182;7.890;2023-06-24T14:47:34;10.77;;;7.90;;
21647;SDS011;10985;54.182;7.890;2023-06-24T14:50:00;9.38;;;8.30;;
21647;SDS011;10985;54.182;7.890;2023-06-24T14:52:26;13.40;;;9.57;;
21647;SDS011;10985;54.182;7.890;2023-06-24T14:54:52;14.90;;;10.02;;